ADDS METAR Data INFO
IDs: Format: Raw Decoded Include TAF

Data at: 1147 UTC 17 Jul 2018

KESF 171053Z AUTO 00000KT 10SM CLR 25/24 A3003 RMK AO2 SLP166 T02500244
KESF 170953Z AUTO 00000KT 10SM CLR 24/24 A3002 RMK AO2 SLP164 T02440239
KESF 170853Z AUTO 00000KT 10SM CLR 24/24 A3001 RMK AO2 SLP159 T02440239 55000
KESF 170753Z AUTO 00000KT 10SM CLR 24/24 A3001 RMK AO2 SLP159 T02440239
KESF 170653Z AUTO 00000KT 10SM CLR 25/24 A3001 RMK AO2 SLP159 T02500239
KESF 170553Z AUTO 05003KT 10SM CLR 25/24 A3001 RMK AO2 SLP159 T02500239 10339 20250 403560244 50001
KESF 170453Z AUTO 00000KT 10SM CLR 26/24 A3001 RMK AO2 SLP160 T02560239
KESF 170353Z AUTO 00000KT 10SM CLR 26/24 A3001 RMK AO2 SLP162 T02560239
KESF 170253Z AUTO 00000KT 10SM CLR 26/24 A3001 RMK AO2 SLP158 T02610239 51016
KESF 170153Z AUTO 00000KT 10SM CLR 27/24 A2999 RMK AO2 SLP153 T02670239
KESF 170053Z AUTO 00000KT 10SM CLR 30/25 A2999 RMK AO2 SLP154 T03000250
KESF 162353Z AUTO 28005KT 10SM CLR 34/21 A2996 RMK AO2 SLP143 T03390211 10356 20328 58007
KESF 162253Z AUTO 26007KT 10SM CLR 34/23 A2997 RMK AO2 SLP148 T03440228
KESF 162153Z AUTO 25009KT 10SM CLR 35/23 A2997 RMK AO2 SLP148 T03500228
KESF 162053Z AUTO 22010G15KT 10SM CLR 35/23 A2998 RMK AO2 SLP149 T03500228 56025
KESF 161953Z AUTO 24009KT 10SM CLR 35/23 A2999 RMK AO2 SLP154 T03500228
KESF 161853Z AUTO 27009KT 10SM FEW060 34/24 A3003 RMK AO2 SLP168 T03390239
KESF 161753Z AUTO 27006KT 10SM SCT041 SCT049 SCT070 33/24 A3005 RMK AO2 SLP175 T03330239 10344 20256 58004
KESF 161653Z AUTO 26010KT 10SM CLR 33/23 A3006 RMK AO2 SLP178 T03330228
KESF 161553Z AUTO 26007KT 230V300 10SM CLR 32/23 A3007 RMK AO2 SLP179 T03220228
KESF 161453Z AUTO 29006KT 10SM CLR 31/23 A3007 RMK AO2 SLP179 T03060228 51014
KESF 161353Z AUTO 27007KT 10SM CLR 29/24 A3006 RMK AO2 SLP178 T02890239
KESF 161253Z AUTO 27007KT 10SM CLR 27/25 A3004 RMK AO2 SLP171 T02670250
KESF 161153Z AUTO 25006KT 10SM CLR 26/25 A3003 RMK AO2 SLP166 T02560250 10256 20244 53007
KESF 161053Z AUTO 26003KT 10SM CLR 25/24 A3002 RMK AO2 SLP162 T02500244
KESF 160953Z AUTO 27004KT 10SM CLR 25/25 A3001 RMK AO2 SLP159 T02500250
KESF 160853Z AUTO 26004KT 10SM CLR 24/24 A3001 RMK AO2 SLP159 T02440244 56008
KESF 160753Z AUTO 00000KT 10SM CLR 24/24 A3001 RMK AO2 SLP161 T02440244
KESF 160653Z AUTO 00000KT 10SM CLR 25/24 A3002 RMK AO2 SLP162 T02500244
KESF 160553Z AUTO 00000KT 10SM CLR 25/24 A3003 RMK AO2 SLP167 T02500244 10328 20250 403500228 50010
KESF 160453Z AUTO 00000KT 10SM CLR 26/25 A3003 RMK AO2 SLP167 T02560250
KESF 160353Z AUTO 00000KT 10SM CLR 26/25 A3002 RMK AO2 SLP165 T02560250
KESF 160253Z AUTO 00000KT 10SM CLR 26/25 A3000 RMK AO2 SLP156 T02610250 53013
KESF 160153Z AUTO 00000KT 10SM CLR 27/26 A2998 RMK AO2 SLP149 T02670256
KESF 160053Z AUTO 00000KT 10SM CLR 29/27 A2997 RMK AO2 SLP146 T02940267
KESF 152353Z AUTO 00000KT 10SM CLR 33/24 A2996 RMK AO2 SLP143 T03280239 10350 20328 55010